Flight Track Log - Related Links

Times and Time Zones

All times are in EDT time to prevent confusion due to time zone crossing. See the KAP927 flight status page for this flight to view local times or setup timezone preferences in your user account.

Time Position Orientation Groundspeed Altitude Reporting Facility
EDT Latitude Longitude Course Direction KTS MPH feet Rate Location/Type
Sat 01:19:53 PM 42.3667 -71.0167 270° West 100 115 400  Level KA90
Sat 01:21:23 PM 42.3667 -71.0667 270° West 111 128 1,300 618 Climbing KA90
Sat 01:23:17 PM 42.3667 -71.1500 270° West 113 130 2,500 667 Climbing KA90
Sat 01:24:23 PM 42.3833 -71.1833 304° West 114 131 3,300 722 Climbing KA90
Sat 01:25:05 PM 42.3833 -71.2167 270° West 112 129 3,800 647 Climbing KA90
Sat 01:26:05 PM 42.3667 -71.2500 236° Southwest 103 119 4,400 496 Climbing KA90
Sat 01:27:06 PM 42.3667 -71.3000 270° West 111 128 4,800 429 Climbing KA90
Sat 01:28:11 PM 42.3500 -71.3500 246° West 119 137 5,300 454 Climbing KA90
Sat 01:29:05 PM 42.3500 -71.3833 270° West 110 127 5,700 417 Climbing KA90
Sat 01:30:06 PM 42.3500 -71.4167 270° West 108 124 6,100 397 Climbing KA90
Sat 01:31:06 PM 42.3333 -71.4667 246° West 112 129 6,500 391 Climbing KA90
Sat 01:31:38 PM 42.3275 -71.4881 250° West 112 129 6,700 465 Climbing Boston Center
Sat 01:33:15 PM 42.3156 -71.5556 257° West 109 125 7,500 459 Climbing Boston Center
Sat 01:34:15 PM 42.3075 -71.5922 253° West 111 128 7,900 291 Climbing Boston Center
Sat 01:34:58 PM 42.3017 -71.6261 257° West 116 133 8,000 58 Climbing Boston Center
Sat 01:35:59 PM 42.2956 -71.6711 260° West 133 153 8,000  Level Boston Center
Sat 01:37:00 PM 42.2856 -71.7217 255° West 141 162 8,000  Level Boston Center
Sat 01:37:55 PM 42.2756 -71.7722 255° West 141 162 8,000  Level Boston Center
Sat 01:39:02 PM 42.2653 -71.8258 255° West 135 155 8,000  Level Boston Center
Sat 01:39:57 PM 42.2656 -71.8733 270° West 136 157 8,000  Level Boston Center
Sat 01:40:58 PM 42.2681 -71.9239 274° West 136 157 8,000  Level Boston Center
Sat 01:41:58 PM 42.2681 -71.9744 270° West 134 154 8,000  Level Boston Center
Sat 01:42:59 PM 42.2706 -72.0247 274° West 135 155 8,000  Level Boston Center
Sat 01:44:06 PM 42.2769 -72.0808 279° West 140 161 8,000  Level Boston Center
Sat 01:45:07 PM 42.2917 -72.1342 290° West 145 167 8,000  Level Boston Center
Sat 01:46:08 PM 42.3083 -72.1875 293° West 145 167 8,000  Level Boston Center
Sat 01:47:09 PM 42.3211 -72.2350 290° West 144 166 8,000  Level Boston Center
Sat 01:48:04 PM 42.3336 -72.2828 290° West 146 168 8,000  Level Boston Center
Sat 01:48:58 PM 42.3461 -72.3306 290° West 146 168 8,000  Level Boston Center
Sat 01:50:11 PM 42.3650 -72.3922 293° West 147 169 8,000  Level Boston Center
Sat 01:51:12 PM 42.3794 -72.4486 289° West 147 169 8,000  Level Boston Center
Sat 01:52:19 PM 42.3942 -72.5019 291° West 144 166 8,000  Level Boston Center
Sat 01:53:20 PM 42.4108 -72.5525 294° West 144 166 8,000  Level Boston Center
Sat 01:54:02 PM 42.4192 -72.5864 288° West 145 167 8,000  Level Boston Center
Sat 01:55:03 PM 42.4336 -72.6397 290° West 142 163 8,000  Level Boston Center
Sat 01:56:10 PM 42.4481 -72.6933 290° West 143 165 8,000  Level Boston Center
Sat 01:57:05 PM 42.4625 -72.7442 291° West 148 170 8,000  Level Boston Center
Sat 01:58:06 PM 42.4769 -72.7947 291° West 147 169 8,000 49 Level Boston Center
Sat 01:59:07 PM 42.4933 -72.8483 293° West 152 175 8,100 50 Climbing Boston Center
Sat 02:00:07 PM 42.5058 -72.8992 288° West 151 174 8,100  Level Boston Center
Sat 02:01:08 PM 42.5200 -72.9528 290° West 151 174 8,100  Level Boston Center
Sat 02:02:09 PM 42.5364 -73.0092 292° West 152 175 8,100  Level Boston Center
Sat 02:03:09 PM 42.5508 -73.0658 289° West 146 168 8,100  Level Boston Center
Sat 02:04:10 PM 42.5650 -73.1167 291° West 149 171 8,100  Level Boston Center
Sat 02:05:11 PM 42.5794 -73.1703 290° West 147 169 8,100 -148 Level Boston Center
Sat 02:06:12 PM 42.5936 -73.2242 290° West 153 176 7,800 -347 Descending Boston Center
Sat 02:07:12 PM 42.6097 -73.2864 289° West 170 196 7,400 -446 Descending Boston Center
Sat 02:08:13 PM 42.6261 -73.3431 291° West 175 201 6,900 -639 Descending Boston Center
Sat 02:09:14 PM 42.6442 -73.4111 290° West 178 205 6,100 -787 Descending Boston Center
Sat 02:10:15 PM 42.6603 -73.4761 289° West 182 209 5,300 -942 Descending Boston Center
Sat 02:11:15 PM 42.6764 -73.5442 288° West 193 222 4,200 -942 Descending Boston Center
Sat 02:12:16 PM 42.7028 -73.6153 297° West 204 235 3,400 -836 Descending Boston Center
Sat 02:13:17 PM 42.7292 -73.6781 300° West 197 227 2,500 -1,041 Descending Boston Center
Sat 02:14:17 PM 42.7475 -73.7322 295° West 157 181 1,300 -992 Descending Boston Center
Sat 02:15:18 PM 42.7489 -73.7886 272° West 124 143 500 -787 Descending Boston Center
Sat 02:17:00 PM 42.7491 -73.8020 288° West  Level Estimated
Sat 02:24:00 PM 42.7491 -73.8020 288° West  Level Estimated
Sat 02:25:00 PM 42.7491 -73.8020 288° West  Level Estimated

Login

Don't have an account? Register now (free) for customized features, flight alerts, and more!